Time;durP1;ratioP1;P1;durP2;ratioP2;P2;SDS_P1;SDS_P2;PMS_P1;PMS_P2;Temp;Humidity;BMP_temperature;BMP_pressure;BME280_temperature;BME280_humidity;BME280_pressure;Samples;Min_cycle;Max_cycle;Signal;HPM_P1;HPM_P2
2023/12/07 00:01:50;;;;;;;16.88;11.25;;;1.80;99.90;;;;;;5075423;28;20064;-24
2023/12/07 00:04:16;;;;;;;19.92;12.77;;;1.80;99.90;;;;;;5075397;28;20044;-24
2023/12/07 00:06:42;;;;;;;16.80;11.88;;;1.80;99.90;;;;;;5075569;28;20041;-24
2023/12/07 00:09:07;;;;;;;17.27;12.93;;;1.90;99.90;;;;;;5075247;28;20131;-24
2023/12/07 00:11:33;;;;;;;15.77;11.52;;;1.90;99.90;;;;;;5075242;28;20083;-24
2023/12/07 00:13:59;;;;;;;15.93;12.15;;;1.90;99.90;;;;;;5073961;28;20432;-24
2023/12/07 00:16:25;;;;;;;17.42;11.60;;;1.90;99.90;;;;;;5075035;28;20045;-24
2023/12/07 00:18:51;;;;;;;16.73;11.07;;;1.90;99.90;;;;;;5075063;28;20048;-24
2023/12/07 00:21:17;;;;;;;18.98;12.68;;;1.80;99.90;;;;;;5074929;28;20041;-24
2023/12/07 00:23:42;;;;;;;18.02;12.00;;;1.70;99.90;;;;;;5074957;28;20041;-24
2023/12/07 00:26:08;;;;;;;17.52;11.20;;;2.00;99.90;;;;;;5057936;28;20553;-24
2023/12/07 00:28:34;;;;;;;17.55;11.57;;;1.70;99.90;;;;;;5074884;28;20137;-24
2023/12/07 00:31:00;;;;;;;15.95;12.45;;;1.70;99.90;;;;;;5073454;28;20079;-24
2023/12/07 00:33:26;;;;;;;21.38;12.30;;;1.70;99.90;;;;;;5074470;28;20044;-24
2023/12/07 00:35:51;;;;;;;15.55;12.10;;;1.70;99.90;;;;;;5075280;28;20040;-24
2023/12/07 00:38:17;;;;;;;15.45;11.35;;;1.70;99.90;;;;;;5073460;28;20048;-24
2023/12/07 00:40:43;;;;;;;20.38;13.70;;;1.70;99.90;;;;;;5073477;28;20051;-24
2023/12/07 00:43:08;;;;;;;16.17;11.98;;;1.80;99.90;;;;;;5075155;28;20067;-24
2023/12/07 00:45:34;;;;;;;18.15;12.98;;;1.70;99.90;;;;;;5074828;28;20386;-25
2023/12/07 00:48:00;;;;;;;17.55;12.57;;;1.70;99.90;;;;;;5074506;28;20565;-24
2023/12/07 00:50:26;;;;;;;17.08;11.40;;;1.70;99.90;;;;;;5074464;28;20406;-24
2023/12/07 00:52:52;;;;;;;15.13;10.52;;;1.60;99.90;;;;;;5073291;28;20486;-24
2023/12/07 00:55:18;;;;;;;17.33;12.18;;;1.60;99.90;;;;;;5073806;28;20420;-24
2023/12/07 00:57:44;;;;;;;19.58;12.05;;;1.60;99.90;;;;;;5074499;28;20036;-24
2023/12/07 01:00:13;;;;;;;18.83;12.00;;;1.60;99.90;;;;;;5073318;28;20529;-24
2023/12/07 01:02:38;;;;;;;16.95;12.15;;;1.60;99.90;;;;;;5074212;28;20045;-24
2023/12/07 01:05:05;;;;;;;15.50;11.38;;;1.50;99.90;;;;;;5074300;28;20051;-25
2023/12/07 01:07:31;;;;;;;19.73;11.48;;;1.50;99.90;;;;;;5074919;28;20113;-24
2023/12/07 01:09:57;;;;;;;16.88;11.50;;;1.50;99.90;;;;;;5072736;28;20537;-24
2023/12/07 01:12:22;;;;;;;15.77;11.88;;;1.50;99.90;;;;;;5074910;28;20048;-24
2023/12/07 01:14:48;;;;;;;17.67;11.50;;;1.60;99.90;;;;;;5074027;28;20383;-24
2023/12/07 01:17:14;;;;;;;19.20;10.32;;;1.60;99.90;;;;;;5074563;28;20123;-24
2023/12/07 01:19:40;;;;;;;15.25;11.30;;;1.70;99.90;;;;;;5073327;28;20048;-24
2023/12/07 01:22:05;;;;;;;15.80;11.18;;;1.80;99.90;;;;;;5073842;28;20044;-24
2023/12/07 01:24:32;;;;;;;14.35;10.77;;;1.80;99.90;;;;;;5074420;28;20084;-25
2023/12/07 01:26:58;;;;;;;15.80;11.02;;;1.90;99.90;;;;;;5072708;28;20044;-24
2023/12/07 01:29:24;;;;;;;15.40;10.57;;;1.90;99.90;;;;;;5073845;28;20109;-24
2023/12/07 01:31:50;;;;;;;16.58;10.18;;;1.90;99.90;;;;;;5072192;28;20056;-24
2023/12/07 01:34:18;;;;;;;16.85;9.70;;;1.90;99.90;;;;;;5073777;28;20055;-24
2023/12/07 01:36:44;;;;;;;15.10;11.23;;;1.90;99.90;;;;;;5073681;28;20101;-24
2023/12/07 01:39:12;;;;;;;13.85;9.73;;;1.90;99.90;;;;;;5072794;28;20052;-24
2023/12/07 01:41:39;;;;;;;13.23;9.85;;;1.90;99.90;;;;;;5073745;28;20075;-25
2023/12/07 01:44:05;;;;;;;14.90;11.48;;;2.00;99.90;;;;;;5072163;28;20441;-24
2023/12/07 01:46:31;;;;;;;16.40;10.25;;;1.80;99.90;;;;;;5073661;28;20090;-25
2023/12/07 01:48:58;;;;;;;15.13;10.27;;;1.60;99.90;;;;;;5073600;28;20398;-24
2023/12/07 01:51:24;;;;;;;15.45;11.05;;;1.50;99.90;;;;;;5074400;28;20127;-25
2023/12/07 01:53:50;;;;;;;16.40;10.45;;;1.40;99.90;;;;;;5073559;28;20572;-25
2023/12/07 01:56:16;;;;;;;17.02;12.18;;;1.50;99.90;;;;;;5073459;28;20141;-25
2023/12/07 01:58:43;;;;;;;20.67;12.15;;;1.40;99.90;;;;;;5073531;28;20475;-24
2023/12/07 02:01:11;;;;;;;16.17;11.13;;;1.40;99.90;;;;;;5073534;28;20063;-24
2023/12/07 02:03:40;;;;;;;18.48;11.15;;;1.30;99.90;;;;;;5073447;28;20049;-25
2023/12/07 02:06:06;;;;;;;16.02;10.93;;;1.40;99.90;;;;;;5073454;28;20060;-25
2023/12/07 02:08:32;;;;;;;18.85;11.60;;;1.40;99.90;;;;;;5073100;28;20376;-25
2023/12/07 02:10:58;;;;;;;17.55;11.73;;;1.50;99.90;;;;;;5073404;28;20059;-25
2023/12/07 02:13:24;;;;;;;18.67;11.38;;;1.50;99.90;;;;;;5073619;28;20052;-25
2023/12/07 02:15:50;;;;;;;18.50;11.25;;;1.60;99.90;;;;;;5072084;28;20423;-25
2023/12/07 02:18:24;;;;;;;18.38;12.32;;;1.50;99.90;;;;;;5074107;28;20044;-25
2023/12/07 02:21:04;;;;;;;16.67;11.25;;;1.50;99.90;;;;;;5074033;28;20053;-25
2023/12/07 02:23:32;;;;;;;16.42;11.20;;;1.40;99.90;;;;;;5077761;28;20048;-25
2023/12/07 02:26:03;;;;;;;19.42;12.13;;;1.40;99.90;;;;;;5077297;28;20048;-25
2023/12/07 02:28:29;;;;;;;17.92;11.88;;;1.40;99.90;;;;;;5076631;28;20044;-25
2023/12/07 02:30:54;;;;;;;14.30;10.23;;;1.30;99.90;;;;;;5077151;28;20115;-25
2023/12/07 02:33:21;;;;;;;17.08;10.98;;;1.30;99.90;;;;;;5077098;28;20052;-25
2023/12/07 02:35:46;;;;;;;17.63;10.35;;;1.30;99.90;;;;;;5077077;28;20049;-25
2023/12/07 02:38:13;;;;;;;18.73;11.27;;;1.30;99.90;;;;;;5077176;28;20490;-25
2023/12/07 02:40:40;;;;;;;15.60;10.15;;;1.30;99.90;;;;;;5077542;28;20102;-25
2023/12/07 02:43:07;;;;;;;17.70;10.50;;;1.30;99.90;;;;;;5075723;28;20049;-25
2023/12/07 02:45:33;;;;;;;14.88;10.90;;;1.30;99.90;;;;;;5076841;28;20055;-25
2023/12/07 02:47:59;;;;;;;13.85;10.25;;;1.40;99.90;;;;;;5077041;28;20463;-25
2023/12/07 02:50:25;;;;;;;16.02;9.13;;;1.40;99.90;;;;;;5077308;28;20118;-25
2023/12/07 02:52:51;;;;;;;14.40;10.32;;;1.40;99.90;;;;;;5076752;28;20076;-25
2023/12/07 02:55:17;;;;;;;19.55;11.15;;;1.40;99.90;;;;;;5076650;28;20505;-25
2023/12/07 02:57:43;;;;;;;17.10;11.00;;;1.40;99.90;;;;;;5076521;28;20044;-25
2023/12/07 03:00:12;;;;;;;16.80;9.73;;;1.40;99.90;;;;;;5076605;28;20052;-25
2023/12/07 03:02:38;;;;;;;13.35;9.88;;;1.40;99.90;;;;;;5075944;28;20097;-25
2023/12/07 03:05:05;;;;;;;16.00;10.07;;;1.50;99.90;;;;;;5076522;28;20083;-25
2023/12/07 03:07:31;;;;;;;16.38;10.73;;;1.50;99.90;;;;;;5076435;28;20174;-25
2023/12/07 03:09:57;;;;;;;17.13;9.85;;;1.50;99.90;;;;;;5076476;28;20135;-25
2023/12/07 03:12:23;;;;;;;15.77;10.30;;;1.60;99.90;;;;;;5075264;28;20127;-25
2023/12/07 03:14:49;;;;;;;18.15;11.15;;;1.60;99.90;;;;;;5076334;28;20040;-25
2023/12/07 03:17:14;;;;;;;18.88;10.95;;;1.60;99.90;;;;;;5075231;28;20359;-25
2023/12/07 03:19:41;;;;;;;19.88;11.70;;;1.50;99.90;;;;;;5076473;28;20105;-25
2023/12/07 03:22:08;;;;;;;16.50;11.27;;;1.50;99.90;;;;;;5076094;28;20048;-25
2023/12/07 03:24:37;;;;;;;16.13;11.05;;;1.50;99.90;;;;;;5076203;28;20131;-25
2023/12/07 03:27:04;;;;;;;17.67;11.10;;;1.50;99.90;;;;;;5076717;28;20051;-25
2023/12/07 03:29:31;;;;;;;14.82;11.07;;;1.50;99.90;;;;;;5076093;28;20044;-25
2023/12/07 03:31:57;;;;;;;18.65;10.50;;;1.40;99.90;;;;;;5076095;28;20064;-25
2023/12/07 03:34:24;;;;;;;16.90;10.55;;;1.40;99.90;;;;;;5076185;28;20091;-25
2023/12/07 03:36:49;;;;;;;15.85;11.20;;;1.40;99.90;;;;;;5076653;28;20044;-25
2023/12/07 03:39:18;;;;;;;14.00;10.05;;;1.30;99.90;;;;;;5075875;28;20410;-25
2023/12/07 03:41:44;;;;;;;14.98;10.23;;;1.30;99.90;;;;;;5075835;28;20490;-25
2023/12/07 03:44:10;;;;;;;16.23;10.35;;;1.20;99.90;;;;;;5075357;28;20486;-25
2023/12/07 03:46:36;;;;;;;16.08;10.50;;;1.20;99.90;;;;;;5075406;28;20040;-25
2023/12/07 03:49:02;;;;;;;15.57;10.65;;;1.20;99.90;;;;;;5074997;28;20101;-25
2023/12/07 03:51:28;;;;;;;15.75;10.00;;;1.60;99.90;;;;;;5074460;28;20471;-25
2023/12/07 03:53:56;;;;;;;16.70;11.07;;;1.20;99.90;;;;;;5075595;28;20174;-25
2023/12/07 03:56:26;;;;;;;15.98;10.98;;;1.20;99.90;;;;;;5075483;28;20045;-25
2023/12/07 03:58:52;;;;;;;15.18;10.73;;;1.20;99.90;;;;;;5057859;28;20045;-25
2023/12/07 04:01:23;;;;;;;15.35;10.73;;;1.10;99.90;;;;;;5076001;28;20045;-25
2023/12/07 04:03:49;;;;;;;16.50;11.13;;;1.10;99.90;;;;;;5075466;28;20044;-25
2023/12/07 04:06:16;;;;;;;16.65;9.73;;;1.10;99.90;;;;;;5075321;28;20094;-25
2023/12/07 04:08:42;;;;;;;16.52;10.35;;;1.10;99.90;;;;;;5075301;28;20044;-25
2023/12/07 04:11:07;;;;;;;16.17;10.75;;;1.50;99.90;;;;;;5075307;28;20044;-25
2023/12/07 04:13:33;;;;;;;14.98;9.98;;;1.10;99.90;;;;;;5075499;28;20127;-25
2023/12/07 04:15:59;;;;;;;19.05;10.60;;;1.10;99.90;;;;;;5075220;28;20496;-25
2023/12/07 04:18:25;;;;;;;11.90;9.10;;;1.10;99.90;;;;;;5075587;28;20101;-25
2023/12/07 04:20:51;;;;;;;16.60;10.93;;;1.10;99.90;;;;;;5075109;28;20071;-25
2023/12/07 04:23:16;;;;;;;14.55;9.77;;;1.10;99.90;;;;;;5074027;28;20114;-25
2023/12/07 04:25:42;;;;;;;18.48;11.63;;;1.10;99.90;;;;;;5075826;28;20105;-25
2023/12/07 04:28:08;;;;;;;15.38;10.07;;;1.10;99.90;;;;;;5074955;28;20417;-25
2023/12/07 04:30:34;;;;;;;15.73;10.48;;;1.10;99.90;;;;;;5074695;28;20515;-25
2023/12/07 04:32:59;;;;;;;16.70;10.48;;;1.10;99.90;;;;;;5074191;28;20131;-25
2023/12/07 04:35:25;;;;;;;25.45;10.38;;;1.10;99.90;;;;;;5073805;28;20360;-25
2023/12/07 04:37:51;;;;;;;13.38;9.85;;;1.30;99.90;;;;;;5074667;28;20044;-25
2023/12/07 04:40:17;;;;;;;14.13;9.90;;;1.10;99.90;;;;;;5074702;28;20474;-25
2023/12/07 04:42:42;;;;;;;13.07;9.75;;;1.00;99.90;;;;;;5074334;28;20048;-25
2023/12/07 04:45:09;;;;;;;14.63;9.73;;;1.00;99.90;;;;;;5074627;28;20093;-25
2023/12/07 04:47:34;;;;;;;13.25;9.32;;;1.00;99.90;;;;;;5074534;28;20066;-26
2023/12/07 04:50:00;;;;;;;15.32;10.13;;;1.00;99.90;;;;;;5075323;28;20069;-25
2023/12/07 04:52:26;;;;;;;15.75;10.05;;;1.00;99.90;;;;;;5074400;28;20049;-25
2023/12/07 04:54:52;;;;;;;16.23;9.85;;;0.90;99.90;;;;;;5074391;28;20132;-25
2023/12/07 04:57:18;;;;;;;13.05;9.15;;;0.90;99.90;;;;;;5074284;28;20047;-25
2023/12/07 04:59:46;;;;;;;15.88;10.32;;;0.90;99.90;;;;;;5073337;28;20106;-26
2023/12/07 05:02:16;;;;;;;14.07;10.18;;;0.90;99.90;;;;;;5074251;28;20083;-25
2023/12/07 05:04:42;;;;;;;19.15;9.43;;;1.00;99.90;;;;;;5072698;28;20371;-26
2023/12/07 05:07:08;;;;;;;15.68;9.75;;;0.90;99.90;;;;;;5074721;28;20094;-25
2023/12/07 05:09:34;;;;;;;15.82;9.27;;;0.90;99.90;;;;;;5074111;28;20048;-25
2023/12/07 05:12:00;;;;;;;16.63;10.68;;;1.00;99.90;;;;;;5074106;28;20056;-25
2023/12/07 05:14:26;;;;;;;15.55;11.00;;;1.00;99.90;;;;;;5074030;28;20052;-25
2023/12/07 05:16:55;;;;;;;17.48;11.35;;;1.00;99.90;;;;;;5073906;28;20045;-25
2023/12/07 05:19:22;;;;;;;17.23;11.43;;;0.90;99.90;;;;;;5074570;28;20554;-25
2023/12/07 05:21:49;;;;;;;18.05;10.73;;;0.90;99.90;;;;;;5073937;28;20049;-25
2023/12/07 05:24:15;;;;;;;19.42;12.25;;;0.90;99.90;;;;;;5073890;28;20051;-25
2023/12/07 05:26:42;;;;;;;16.88;11.23;;;0.80;99.90;;;;;;5074442;28;20044;-25
2023/12/07 05:29:09;;;;;;;15.93;11.35;;;0.90;99.90;;;;;;5074414;28;20488;-26
2023/12/07 05:31:36;;;;;;;19.02;10.95;;;0.80;99.90;;;;;;5073651;28;20138;-26
2023/12/07 05:34:02;;;;;;;18.20;12.23;;;0.80;99.90;;;;;;5073844;28;20393;-26
2023/12/07 05:36:28;;;;;;;21.77;12.07;;;0.80;99.90;;;;;;5073742;28;20044;-25
2023/12/07 05:38:54;;;;;;;19.15;12.38;;;0.70;99.90;;;;;;5073740;28;20112;-25
2023/12/07 05:41:19;;;;;;;17.60;12.05;;;1.10;99.90;;;;;;5074524;28;20127;-25
2023/12/07 05:43:45;;;;;;;22.48;14.07;;;0.60;99.90;;;;;;5073739;28;20506;-26
2023/12/07 05:46:11;;;;;;;22.48;13.95;;;0.60;99.90;;;;;;5073654;28;20541;-26
2023/12/07 05:48:37;;;;;;;23.77;12.88;;;0.70;99.90;;;;;;5073662;28;20048;-25
2023/12/07 05:51:03;;;;;;;18.63;12.05;;;0.60;99.90;;;;;;5072397;28;20429;-26
2023/12/07 05:53:30;;;;;;;20.88;13.07;;;0.70;99.90;;;;;;5072976;28;20041;-26
2023/12/07 05:55:57;;;;;;;20.98;13.13;;;0.80;99.90;;;;;;5073103;28;20053;-26
2023/12/07 05:58:23;;;;;;;23.90;14.23;;;0.70;99.90;;;;;;5073124;28;20041;-25
2023/12/07 06:00:49;;;;;;;22.77;15.02;;;0.70;99.90;;;;;;5074082;28;20055;-26
2023/12/07 06:03:15;;;;;;;21.92;13.50;;;0.70;99.90;;;;;;5074361;28;20121;-25
2023/12/07 06:05:41;;;;;;;29.90;16.42;;;0.60;99.90;;;;;;5072523;28;20394;-25
2023/12/07 06:08:07;;;;;;;25.23;14.27;;;0.70;99.90;;;;;;5072508;28;20056;-26
2023/12/07 06:10:33;;;;;;;24.13;14.88;;;0.70;99.90;;;;;;5073469;28;20127;-26
2023/12/07 06:13:00;;;;;;;22.45;13.73;;;0.70;99.90;;;;;;5055625;28;20083;-26
2023/12/07 06:15:27;;;;;;;21.73;13.98;;;0.70;99.90;;;;;;5072226;28;20056;-25
2023/12/07 06:17:54;;;;;;;28.00;15.50;;;0.80;99.90;;;;;;5072980;28;20141;-26
2023/12/07 06:20:20;;;;;;;24.35;14.52;;;0.80;99.90;;;;;;5073635;28;20059;-25
2023/12/07 06:22:46;;;;;;;23.65;14.48;;;0.80;99.90;;;;;;5073266;28;20045;-26
2023/12/07 06:25:12;;;;;;;26.15;13.77;;;0.80;99.90;;;;;;5072156;28;20127;-26
2023/12/07 06:27:38;;;;;;;22.70;14.48;;;0.90;99.90;;;;;;5073541;28;20399;-26
2023/12/07 06:30:05;;;;;;;24.20;14.02;;;0.90;99.90;;;;;;5072798;28;20510;-25
2023/12/07 06:32:32;;;;;;;21.27;13.68;;;0.90;99.90;;;;;;5072335;28;20478;-25
2023/12/07 06:34:58;;;;;;;25.35;14.85;;;1.10;99.90;;;;;;5073239;28;20169;-26
2023/12/07 06:37:24;;;;;;;26.35;14.10;;;1.30;99.90;;;;;;5073381;28;20040;-25
2023/12/07 06:39:49;;;;;;;23.02;14.77;;;1.00;99.90;;;;;;5073187;28;20128;-26
2023/12/07 06:42:15;;;;;;;24.80;14.45;;;1.00;99.90;;;;;;5073172;28;20052;-26
2023/12/07 06:44:43;;;;;;;24.80;15.20;;;1.10;99.90;;;;;;5073908;28;20049;-26
2023/12/07 06:47:09;;;;;;;24.55;14.88;;;1.10;99.90;;;;;;5073109;28;20052;-25
2023/12/07 06:49:36;;;;;;;27.50;17.17;;;1.00;99.90;;;;;;5073869;28;20049;-26
2023/12/07 06:52:02;;;;;;;25.33;15.88;;;1.00;99.90;;;;;;5072978;28;20055;-26
2023/12/07 06:54:27;;;;;;;24.20;15.77;;;1.00;99.90;;;;;;5072980;28;20044;-26
2023/12/07 06:56:53;;;;;;;26.08;14.90;;;0.90;99.90;;;;;;5055162;28;20052;-26
2023/12/07 06:59:20;;;;;;;27.02;15.75;;;0.90;99.90;;;;;;5072942;28;20052;-26
2023/12/07 07:01:45;;;;;;;27.50;14.90;;;1.00;99.90;;;;;;5072951;28;20142;-26
2023/12/07 07:04:11;;;;;;;24.92;15.63;;;0.90;99.90;;;;;;5072898;28;20141;-26
2023/12/07 07:06:39;;;;;;;24.23;15.57;;;1.00;99.90;;;;;;5072884;28;20045;-26
2023/12/07 07:09:05;;;;;;;24.35;14.00;;;1.10;99.90;;;;;;5074623;28;20052;-26
2023/12/07 07:11:31;;;;;;;23.63;15.68;;;1.00;99.90;;;;;;5076367;28;20051;-26
2023/12/07 07:13:57;;;;;;;23.63;15.13;;;1.00;99.90;;;;;;5075197;28;20052;-26
2023/12/07 07:16:23;;;;;;;23.25;15.20;;;1.00;99.90;;;;;;5075268;28;20540;-26
2023/12/07 07:18:49;;;;;;;30.95;16.67;;;1.00;99.90;;;;;;5076851;28;20048;-26
2023/12/07 07:21:14;;;;;;;25.45;15.48;;;1.00;99.90;;;;;;5076660;28;20174;-26
2023/12/07 07:23:40;;;;;;;23.45;14.25;;;1.00;99.90;;;;;;5075488;28;20059;-25
2023/12/07 07:26:06;;;;;;;27.75;15.15;;;1.00;99.90;;;;;;5076089;28;20136;-26
2023/12/07 07:28:32;;;;;;;24.33;15.13;;;1.00;99.90;;;;;;5076084;28;20052;-27
2023/12/07 07:30:58;;;;;;;25.25;14.93;;;1.00;99.90;;;;;;5074714;28;20061;-26
2023/12/07 07:33:24;;;;;;;25.17;15.52;;;1.00;99.90;;;;;;5076526;28;20117;-26
2023/12/07 07:35:50;;;;;;;24.40;14.75;;;1.00;99.90;;;;;;5075853;28;20495;-26
2023/12/07 07:38:16;;;;;;;27.83;15.85;;;1.00;99.90;;;;;;5075838;28;20044;-26
2023/12/07 07:40:42;;;;;;;25.73;15.77;;;1.10;99.90;;;;;;5075162;28;20135;-26
2023/12/07 07:43:08;;;;;;;23.80;15.85;;;1.10;99.90;;;;;;5075461;28;20394;-26
2023/12/07 07:45:34;;;;;;;24.58;15.90;;;1.00;99.90;;;;;;5075809;28;20497;-26
2023/12/07 07:48:00;;;;;;;28.27;17.65;;;1.10;99.90;;;;;;5074962;28;20113;-26
2023/12/07 07:50:28;;;;;;;24.92;16.15;;;1.10;99.90;;;;;;5075720;28;20421;-26
2023/12/07 07:52:55;;;;;;;24.40;16.23;;;1.20;99.90;;;;;;5075728;28;20048;-27
2023/12/07 07:55:20;;;;;;;30.35;17.58;;;1.20;99.90;;;;;;5075593;28;20053;-26
2023/12/07 07:57:46;;;;;;;25.45;15.98;;;1.20;99.90;;;;;;5075511;28;20094;-27
2023/12/07 08:00:13;;;;;;;22.58;15.05;;;1.20;99.90;;;;;;5075214;28;20086;-26
2023/12/07 08:02:38;;;;;;;24.90;16.08;;;1.20;99.90;;;;;;5075489;28;20059;-27
2023/12/07 08:05:05;;;;;;;26.73;15.43;;;1.20;99.90;;;;;;5074263;28;20474;-28
2023/12/07 08:07:30;;;;;;;26.10;16.52;;;1.20;99.90;;;;;;5074343;28;20543;-26
2023/12/07 08:09:56;;;;;;;24.60;15.98;;;1.20;99.90;;;;;;5075343;28;20048;-27
2023/12/07 08:12:25;;;;;;;26.38;15.73;;;1.30;99.90;;;;;;5075256;28;20063;-26
2023/12/07 08:14:50;;;;;;;22.30;15.40;;;1.40;99.90;;;;;;5075490;28;20469;-26
2023/12/07 08:17:16;;;;;;;24.13;15.45;;;1.30;99.90;;;;;;5075071;28;20080;-27
2023/12/07 08:19:42;;;;;;;24.77;16.35;;;1.40;99.90;;;;;;5074280;28;20044;-26
2023/12/07 08:22:08;;;;;;;25.60;16.92;;;1.50;99.90;;;;;;5074998;28;20127;-26
2023/12/07 08:24:35;;;;;;;24.75;15.60;;;1.40;99.90;;;;;;5075001;28;20107;-27
2023/12/07 08:27:01;;;;;;;23.60;14.48;;;1.70;99.90;;;;;;5073993;28;20056;-28
2023/12/07 08:29:26;;;;;;;25.33;15.98;;;1.50;99.90;;;;;;5074919;28;20051;-26
2023/12/07 08:31:52;;;;;;;27.20;16.52;;;1.50;99.90;;;;;;5075150;28;20060;-27
2023/12/07 08:34:18;;;;;;;27.52;16.58;;;1.50;99.90;;;;;;5075611;28;20045;-26
2023/12/07 08:36:44;;;;;;;28.52;16.88;;;1.40;99.90;;;;;;5074739;28;20390;-27
2023/12/07 08:39:10;;;;;;;26.75;16.98;;;1.40;99.90;;;;;;5073577;28;20540;-27
2023/12/07 08:41:39;;;;;;;25.25;16.65;;;1.50;99.90;;;;;;5073568;28;20048;-27
2023/12/07 08:44:05;;;;;;;27.00;16.38;;;1.40;99.90;;;;;;5073466;28;20052;-27
2023/12/07 08:46:31;;;;;;;33.33;17.35;;;1.40;99.90;;;;;;5074377;28;20054;-27
2023/12/07 08:48:56;;;;;;;29.08;17.55;;;1.40;99.90;;;;;;5073603;28;20045;-27
2023/12/07 08:51:23;;;;;;;29.45;18.63;;;1.30;99.90;;;;;;5074446;28;20048;-29
2023/12/07 08:53:51;;;;;;;30.08;18.70;;;1.30;99.90;;;;;;5074403;28;20044;-27
2023/12/07 08:56:18;;;;;;;28.27;17.42;;;1.20;99.90;;;;;;5074311;28;20049;-28
2023/12/07 08:58:44;;;;;;;31.38;17.90;;;1.10;99.90;;;;;;5074332;28;20069;-27
2023/12/07 09:01:11;;;;;;;37.17;20.35;;;1.10;99.90;;;;;;5074339;28;20048;-28
2023/12/07 09:03:37;;;;;;;32.15;18.85;;;1.10;99.90;;;;;;5074243;28;20044;-27
2023/12/07 09:06:03;;;;;;;37.70;20.33;;;1.10;99.90;;;;;;5073233;28;20350;-27
2023/12/07 09:08:29;;;;;;;37.88;21.20;;;1.00;99.90;;;;;;5074119;28;20044;-27
2023/12/07 09:10:55;;;;;;;34.65;19.88;;;1.00;99.90;;;;;;5074196;28;20045;-28
2023/12/07 09:13:20;;;;;;;36.15;21.85;;;1.00;99.90;;;;;;5073906;28;20059;-27
2023/12/07 09:15:46;;;;;;;35.33;20.63;;;0.80;99.90;;;;;;5073616;28;20139;-27
2023/12/07 09:18:12;;;;;;;43.85;24.85;;;0.90;99.90;;;;;;5073763;28;20094;-27
2023/12/07 09:20:45;;;;;;;44.15;25.80;;;0.90;99.90;;;;;;5073796;28;20482;-27
2023/12/07 09:23:12;;;;;;;43.58;22.02;;;0.90;99.90;;;;;;5074272;28;20141;-27
2023/12/07 09:25:40;;;;;;;41.80;23.05;;;0.90;99.90;;;;;;5073852;28;20051;-27
2023/12/07 09:28:06;;;;;;;51.00;28.10;;;0.80;99.90;;;;;;5074463;28;20374;-27
2023/12/07 09:30:33;;;;;;;52.15;29.05;;;0.80;99.90;;;;;;5072096;28;20148;-27
2023/12/07 09:33:04;;;;;;;51.50;27.55;;;0.90;99.90;;;;;;5073307;28;20044;-27
2023/12/07 09:35:30;;;;;;;49.57;27.23;;;0.80;99.90;;;;;;5073905;28;20049;-28
2023/12/07 09:37:56;;;;;;;57.20;32.57;;;0.90;99.90;;;;;;5073454;28;20049;-27
2023/12/07 09:40:24;;;;;;;58.78;32.63;;;0.90;99.90;;;;;;5073192;28;20045;-27
2023/12/07 09:42:51;;;;;;;59.53;30.83;;;1.00;99.90;;;;;;5073531;28;20459;-27
2023/12/07 09:45:19;;;;;;;56.33;34.17;;;1.00;99.90;;;;;;5073470;28;20040;-27
2023/12/07 09:47:50;;;;;;;78.32;43.05;;;1.20;99.90;;;;;;5073530;28;20079;-27
2023/12/07 09:50:23;;;;;;;67.90;38.45;;;1.10;99.90;;;;;;5073425;28;20127;-27
2023/12/07 09:52:51;;;;;;;67.30;36.75;;;1.10;99.90;;;;;;5073483;28;20045;-27
2023/12/07 09:55:17;;;;;;;55.10;33.50;;;1.10;99.90;;;;;;5074017;28;20044;-28
2023/12/07 09:57:44;;;;;;;49.30;28.40;;;1.10;99.90;;;;;;5073333;28;20076;-27
2023/12/07 10:00:17;;;;;;;51.78;29.23;;;1.20;99.90;;;;;;5073374;28;20457;-27
2023/12/07 10:02:45;;;;;;;47.70;26.05;;;1.30;99.90;;;;;;5072655;28;20131;-28
2023/12/07 10:05:13;;;;;;;44.80;26.88;;;1.30;99.90;;;;;;5074108;28;20045;-28
2023/12/07 10:07:41;;;;;;;45.72;27.45;;;1.40;99.90;;;;;;5073314;28;20495;-27
2023/12/07 10:10:07;;;;;;;45.22;25.90;;;1.50;99.90;;;;;;5073367;28;20048;-27
2023/12/07 10:12:34;;;;;;;41.80;26.55;;;1.50;99.90;;;;;;5073781;28;20061;-27
2023/12/07 10:15:22;;;;;;;42.97;25.45;;;1.60;99.90;;;;;;5073324;28;20072;-27
2023/12/07 10:17:58;;;;;;;37.22;23.50;;;1.60;99.90;;;;;;5072384;28;20509;-27
2023/12/07 10:20:26;;;;;;;36.58;22.63;;;1.60;99.90;;;;;;5073910;28;20052;-28
2023/12/07 10:23:09;;;;;;;40.53;23.10;;;1.70;99.90;;;;;;5073342;28;20052;-27
2023/12/07 10:25:43;;;;;;;35.55;22.33;;;1.70;99.90;;;;;;5073023;28;20402;-27
2023/12/07 10:28:11;;;;;;;32.97;21.25;;;1.80;99.90;;;;;;5073834;28;20041;-27
2023/12/07 10:30:41;;;;;;;32.65;19.33;;;1.80;99.90;;;;;;5071805;28;20546;-27
2023/12/07 10:33:07;;;;;;;33.00;21.00;;;1.80;99.90;;;;;;5073270;28;20063;-27
2023/12/07 10:35:38;;;;;;;33.15;21.65;;;2.00;99.90;;;;;;5072213;28;20050;-27
2023/12/07 10:38:04;;;;;;;30.83;21.25;;;2.00;99.90;;;;;;5073100;28;20044;-27
2023/12/07 10:40:30;;;;;;;34.80;20.80;;;2.00;99.90;;;;;;5072878;28;20460;-28
2023/12/07 10:42:58;;;;;;;29.60;19.52;;;2.10;99.90;;;;;;5074096;28;20078;-27
2023/12/07 10:45:33;;;;;;;27.85;18.92;;;2.10;99.90;;;;;;5075401;28;20444;-27
2023/12/07 10:48:07;;;;;;;32.08;18.98;;;2.20;99.90;;;;;;5075967;28;20473;-27
2023/12/07 10:50:46;;;;;;;28.90;18.85;;;2.20;99.90;;;;;;5076867;28;20083;-27
2023/12/07 10:53:40;;;;;;;28.77;18.48;;;2.30;99.90;;;;;;5058569;28;20052;-27
2023/12/07 10:56:11;;;;;;;28.17;17.98;;;2.30;99.90;;;;;;5076729;28;20044;-28
2023/12/07 10:58:38;;;;;;;33.22;19.95;;;2.40;99.90;;;;;;5076658;28;20036;-27
2023/12/07 11:01:07;;;;;;;30.58;18.58;;;2.50;99.90;;;;;;5075616;28;20128;-28
2023/12/07 11:03:33;;;;;;;28.20;17.98;;;2.50;99.90;;;;;;5075934;28;20378;-27
2023/12/07 11:05:59;;;;;;;27.13;17.88;;;2.60;99.90;;;;;;5075252;28;20131;-28
2023/12/07 11:08:40;;;;;;;28.13;17.58;;;2.60;99.90;;;;;;5076448;28;20463;-28
2023/12/07 11:11:29;;;;;;;25.25;17.42;;;2.60;99.90;;;;;;5077096;28;20058;-27
2023/12/07 11:14:11;;;;;;;26.38;17.30;;;2.70;99.90;;;;;;5076375;28;20044;-27
2023/12/07 11:16:42;;;;;;;22.37;14.53;;;2.80;99.90;;;;;;5075342;28;20048;-27
2023/12/07 11:19:42;;;;;;;22.85;15.15;;;2.80;99.90;;;;;;5075381;28;20482;-27
2023/12/07 11:22:10;;;;;;;21.92;14.82;;;2.80;99.90;;;;;;5075966;28;20096;-27
2023/12/07 11:24:36;;;;;;;20.30;14.15;;;2.90;99.90;;;;;;5076223;28;20078;-28
2023/12/07 11:27:02;;;;;;;19.42;14.15;;;3.00;99.90;;;;;;5074930;28;20055;-28
2023/12/07 11:29:29;;;;;;;20.13;13.30;;;3.10;99.90;;;;;;5075407;28;20052;-28
2023/12/07 11:32:03;;;;;;;19.95;13.18;;;3.10;99.90;;;;;;5075919;28;20149;-27
2023/12/07 11:34:42;;;;;;;21.40;13.27;;;3.10;99.90;;;;;;5075666;28;20051;-27
2023/12/07 11:37:10;;;;;;;22.95;14.18;;;3.10;99.90;;;;;;5075893;28;20124;-27
2023/12/07 11:39:42;;;;;;;19.52;13.40;;;3.10;99.90;;;;;;5075259;28;20048;-28
2023/12/07 11:42:11;;;;;;;21.97;14.33;;;3.10;99.90;;;;;;5075892;28;20045;-27
2023/12/07 11:44:41;;;;;;;21.67;13.85;;;3.20;99.90;;;;;;5075854;28;20059;-28
2023/12/07 11:47:09;;;;;;;21.55;14.80;;;3.20;99.90;;;;;;5076378;28;20048;-28
2023/12/07 11:49:35;;;;;;;20.63;14.55;;;3.20;99.90;;;;;;5075034;28;20119;-27
2023/12/07 11:52:18;;;;;;;23.60;15.20;;;3.30;99.90;;;;;;5075787;28;20052;-28
2023/12/07 11:54:48;;;;;;;26.02;15.20;;;3.30;99.90;;;;;;5074746;28;20142;-28
2023/12/07 11:57:15;;;;;;;21.02;15.27;;;3.30;99.90;;;;;;5075524;28;20051;-28
2023/12/07 11:59:44;;;;;;;21.35;16.08;;;3.40;99.90;;;;;;5075522;28;20055;-27
2023/12/07 12:02:12;;;;;;;24.77;16.17;;;3.40;99.90;;;;;;5075172;28;20481;-28
2023/12/07 12:04:38;;;;;;;24.13;16.98;;;3.40;99.90;;;;;;5075701;28;20128;-28
2023/12/07 12:07:04;;;;;;;27.33;17.63;;;3.60;99.90;;;;;;5075691;28;20089;-28
2023/12/07 12:09:30;;;;;;;35.20;18.42;;;3.60;99.90;;;;;;5075603;28;20094;-28
2023/12/07 12:12:00;;;;;;;27.67;18.48;;;3.70;99.90;;;;;;5075273;28;20040;-27
2023/12/07 12:14:27;;;;;;;27.08;19.23;;;3.70;99.90;;;;;;5075608;28;20040;-28
2023/12/07 12:16:53;;;;;;;31.38;20.27;;;3.70;99.90;;;;;;5075069;28;20534;-28
2023/12/07 12:19:20;;;;;;;31.13;20.50;;;3.70;99.90;;;;;;5075126;28;20131;-28
2023/12/07 12:21:46;;;;;;;29.00;20.63;;;3.70;99.90;;;;;;5074766;28;20514;-28
2023/12/07 12:24:12;;;;;;;30.27;21.17;;;3.90;99.90;;;;;;5074981;28;20044;-27
2023/12/07 12:26:44;;;;;;;29.85;20.77;;;4.40;99.90;;;;;;5075232;28;20040;-27
2023/12/07 12:29:11;;;;;;;30.52;20.38;;;5.00;99.90;;;;;;5074971;28;20045;-27
2023/12/07 12:31:37;;;;;;;34.22;19.85;;;5.40;99.90;;;;;;5073592;28;20049;-27
2023/12/07 12:34:06;;;;;;;28.48;18.80;;;5.80;99.90;;;;;;5074834;28;20056;-28
2023/12/07 12:36:32;;;;;;;22.90;17.15;;;5.90;99.90;;;;;;5074257;28;20053;-28
2023/12/07 12:38:59;;;;;;;23.02;16.00;;;5.90;99.90;;;;;;5074783;28;20048;-27